Time;durP1;ratioP1;P1;durP2;ratioP2;P2;SDS_P1;SDS_P2;PMS_P1;PMS_P2;Temp;Humidity;BMP_temperature;BMP_pressure;BME280_temperature;BME280_humidity;BME280_pressure;Samples;Min_cycle;Max_cycle;Signal;HPM_P1;HPM_P2
2023/03/17 00:00:04;;;;;;;1.67;1.57;;;;;;;;;;5075796;28;20205;-90
2023/03/17 00:02:31;;;;;;;1.40;1.30;;;;;;;;;;5075548;28;20201;-90
2023/03/17 00:04:57;;;;;;;1.10;1.00;;;;;;;;;;5075772;28;20201;-91
2023/03/17 00:07:26;;;;;;;1.00;1.00;;;;;;;;;;5077974;28;20213;-91
2023/03/17 00:09:53;;;;;;;0.97;0.97;;;;;;;;;;5086223;28;20335;-90
2023/03/17 00:12:20;;;;;;;1.10;1.10;;;;;;;;;;5089101;28;20234;-90
2023/03/17 00:14:47;;;;;;;1.50;1.40;;;;;;;;;;5075361;28;20205;-91
2023/03/17 00:17:14;;;;;;;1.33;1.23;;;;;;;;;;5075727;28;20208;-91
2023/03/17 00:19:43;;;;;;;1.40;1.30;;;;;;;;;;5075300;28;20220;-92
2023/03/17 00:22:17;;;;;;;1.30;1.20;;;;;;;;;;5075710;28;20208;-92
2023/03/17 00:24:45;;;;;;;1.47;1.37;;;;;;;;;;5075610;28;20201;-91
2023/03/17 00:27:13;;;;;;;1.50;1.20;;;;;;;;;;5075339;28;20698;-91
2023/03/17 00:29:40;;;;;;;1.60;1.50;;;;;;;;;;5075107;28;20286;-91
2023/03/17 00:32:11;;;;;;;2.33;1.73;;;;;;;;;;5075241;28;20215;-92
2023/03/17 00:34:38;;;;;;;1.60;1.50;;;;;;;;;;5075211;28;20213;-90
2023/03/17 00:37:05;;;;;;;1.87;1.77;;;;;;;;;;5074619;28;20220;-90
2023/03/17 00:39:32;;;;;;;1.87;1.77;;;;;;;;;;5075402;28;20208;-91
2023/03/17 00:42:03;;;;;;;2.43;2.23;;;;;;;;;;5075077;28;20224;-91
2023/03/17 00:44:30;;;;;;;2.03;1.93;;;;;;;;;;5075481;28;20659;-90
2023/03/17 00:46:56;;;;;;;1.83;1.73;;;;;;;;;;5082623;28;20300;-91
2023/03/17 00:49:25;;;;;;;2.30;2.10;;;;;;;;;;5081755;28;20285;-91
2023/03/17 00:51:53;;;;;;;2.00;1.90;;;;;;;;;;5087612;28;20726;-91
2023/03/17 00:54:20;;;;;;;2.37;2.17;;;;;;;;;;5074909;28;20273;-91
2023/03/17 00:56:48;;;;;;;2.40;2.20;;;;;;;;;;5074478;28;20307;-92
2023/03/17 00:59:20;;;;;;;2.23;1.97;;;;;;;;;;5075045;28;20729;-91
2023/03/17 01:01:47;;;;;;;2.63;2.27;;;;;;;;;;5075325;28;20235;-91
2023/03/17 01:04:14;;;;;;;2.40;2.10;;;;;;;;;;5074966;28;20201;-90
2023/03/17 01:06:42;;;;;;;3.17;2.87;;;;;;;;;;5084340;28;20208;-91
2023/03/17 01:09:09;;;;;;;3.93;2.53;;;;;;;;;;5078129;28;20324;-90
2023/03/17 01:11:37;;;;;;;2.67;2.47;;;;;;;;;;5074543;28;20197;-91
2023/03/17 01:14:04;;;;;;;2.40;2.20;;;;;;;;;;5075150;28;20220;-91
2023/03/17 01:16:32;;;;;;;3.27;3.07;;;;;;;;;;5075083;28;20233;-90
2023/03/17 01:19:26;;;;;;;2.43;2.20;;;;;;;;;;5074485;28;20219;-90
2023/03/17 01:21:53;;;;;;;2.77;2.57;;;;;;;;;;5074769;28;20236;-91
2023/03/17 01:24:19;;;;;;;2.60;2.20;;;;;;;;;;5074606;28;20204;-91
2023/03/17 01:26:46;;;;;;;2.80;2.30;;;;;;;;;;5074780;28;20205;-91
2023/03/17 01:29:21;;;;;;;2.50;2.30;;;;;;;;;;5094851;28;20212;-90
2023/03/17 01:31:49;;;;;;;2.63;2.43;;;;;;;;;;5078555;28;20645;-90
2023/03/17 01:34:16;;;;;;;3.17;2.87;;;;;;;;;;5083361;28;20637;-90
2023/03/17 01:36:43;;;;;;;3.10;2.17;;;;;;;;;;5092211;28;20203;-90
2023/03/17 01:39:10;;;;;;;2.83;2.33;;;;;;;;;;5073877;28;20212;-90
2023/03/17 01:41:38;;;;;;;3.00;2.50;;;;;;;;;;5074656;28;20631;-91
2023/03/17 01:44:06;;;;;;;2.40;2.20;;;;;;;;;;5073593;28;20694;-90
2023/03/17 01:46:34;;;;;;;2.43;2.23;;;;;;;;;;5073816;28;20291;-90
2023/03/17 01:49:08;;;;;;;3.53;2.80;;;;;;;;;;5073227;28;20603;-89
2023/03/17 01:51:39;;;;;;;2.83;2.13;;;;;;;;;;5074184;28;20227;-90
2023/03/17 01:54:09;;;;;;;2.20;2.00;;;;;;;;;;5073794;28;20201;-90
2023/03/17 01:57:14;;;;;;;1.90;1.80;;;;;;;;;;5073921;28;20205;-90
2023/03/17 01:59:44;;;;;;;2.97;2.67;;;;;;;;;;5073756;28;20625;-90
2023/03/17 02:02:14;;;;;;;6.40;2.83;;;;;;;;;;5073908;28;20270;-90
2023/03/17 02:04:43;;;;;;;2.50;2.30;;;;;;;;;;5073996;28;20205;-91
2023/03/17 02:07:43;;;;;;;2.97;2.67;;;;;;;;;;5073939;28;20274;-91
2023/03/17 02:10:12;;;;;;;1.77;1.67;;;;;;;;;;5033432;28;20218;-90
2023/03/17 02:12:55;;;;;;;8.37;4.93;;;;;;;;;;5034050;28;20280;-90
2023/03/17 02:15:24;;;;;;;2.00;1.90;;;;;;;;;;5033846;28;20214;-90
2023/03/17 02:17:51;;;;;;;2.27;2.07;;;;;;;;;;5053711;28;20202;-90
2023/03/17 02:23:41;;;;;;;2.13;2.00;;;;;;;;;;5053644;28;20223;-90
2023/03/17 02:26:36;;;;;;;1.77;1.67;;;;;;;;;;5053544;28;20205;-91
2023/03/17 02:32:25;;;;;;;3.27;2.00;;;;;;;;;;5053384;28;20176;-90
2023/03/17 02:35:45;;;;;;;2.33;1.77;;;;;;;;;;5053927;28;20236;-90
2023/03/17 02:38:12;;;;;;;2.63;2.00;;;;;;;;;;5051240;28;20656;-90
2023/03/17 02:40:54;;;;;;;2.30;1.77;;;;;;;;;;5033575;28;20202;-90
2023/03/17 02:46:49;;;;;;;2.47;2.27;;;;;;;;;;5033476;28;20206;-91
2023/03/17 02:50:04;;;;;;;1.90;1.80;;;;;;;;;;5033050;28;20206;-90
2023/03/17 02:52:31;;;;;;;2.50;2.30;;;;;;;;;;5033299;28;20206;-91
2023/03/17 02:55:09;;;;;;;2.17;1.97;;;;;;;;;;5033685;28;20737;-89
2023/03/17 03:00:58;;;;;;;1.60;1.50;;;;;;;;;;5033450;28;20193;-90
2023/03/17 03:03:40;;;;;;;1.97;1.87;;;;;;;;;;5032891;28;20205;-91
2023/03/17 03:06:07;;;;;;;2.30;2.10;;;;;;;;;;5032958;28;20264;-91
2023/03/17 03:12:15;;;;;;;1.53;1.43;;;;;;;;;;5052913;28;20201;-90
2023/03/17 03:14:43;;;;;;;1.97;1.57;;;;;;;;;;5052819;28;20312;-90
2023/03/17 03:17:24;;;;;;;2.00;1.80;;;;;;;;;;5038271;28;20666;-90
2023/03/17 03:19:51;;;;;;;1.50;1.40;;;;;;;;;;5032806;28;20677;-86
2023/03/17 03:29:05;;;;;;;1.70;1.60;;;;;;;;;;5067213;28;20191;-90
2023/03/17 03:34:57;;;;;;;2.00;1.87;;;;;;;;;;5073536;28;20265;-90
2023/03/17 03:37:27;;;;;;;1.90;1.80;;;;;;;;;;5093099;28;20257;-90
2023/03/17 03:39:54;;;;;;;1.80;1.70;;;;;;;;;;5092664;28;20630;-90
2023/03/17 03:42:20;;;;;;;2.03;1.87;;;;;;;;;;5092675;28;20255;-90
2023/03/17 03:48:09;;;;;;;2.33;1.93;;;;;;;;;;5092748;28;20203;-90
2023/03/17 03:50:37;;;;;;;2.30;2.07;;;;;;;;;;5092654;28;20212;-90
2023/03/17 03:53:30;;;;;;;2.07;1.70;;;;;;;;;;5092898;28;20215;-92
2023/03/17 03:55:57;;;;;;;2.93;2.00;;;;;;;;;;5092451;28;20197;-90
2023/03/17 03:58:24;;;;;;;2.30;2.10;;;;;;;;;;5092440;28;20207;-91
2023/03/17 04:00:51;;;;;;;2.27;2.07;;;;;;;;;;5094203;28;20208;-90
2023/03/17 04:03:18;;;;;;;1.97;1.87;;;;;;;;;;5112584;28;20199;-91
2023/03/17 04:09:08;;;;;;;2.80;1.80;;;;;;;;;;5112899;28;20183;-91
2023/03/17 04:12:07;;;;;;;1.70;1.57;;;;;;;;;;5107423;28;20706;-90
2023/03/17 04:14:33;;;;;;;4.47;3.67;;;;;;;;;;5096590;28;20211;-91
2023/03/17 04:17:40;;;;;;;2.07;1.87;;;;;;;;;;5115560;28;20210;-90
2023/03/17 04:20:08;;;;;;;2.33;2.13;;;;;;;;;;5081988;27;20214;-90
2023/03/17 04:22:35;;;;;;;1.87;1.77;;;;;;;;;;5118438;27;20674;-91
2023/03/17 04:25:10;;;;;;;1.73;1.53;;;;;;;;;;5098080;28;20248;-89
2023/03/17 04:30:58;;;;;;;1.60;1.50;;;;;;;;;;5136642;27;20241;-88
2023/03/17 04:37:01;;;;;;;1.93;1.83;;;;;;;;;;5131210;27;20203;-90
2023/03/17 04:47:00;;;;;;;1.50;1.40;;;;;;;;;;5114115;28;20187;-89
2023/03/17 04:56:52;;;;;;;1.57;1.47;;;;;;;;;;5110240;28;20284;-89
2023/03/17 04:59:19;;;;;;;1.50;1.40;;;;;;;;;;5128423;27;20206;-89
2023/03/17 05:01:46;;;;;;;1.30;1.20;;;;;;;;;;5127430;27;20218;-88
2023/03/17 05:04:13;;;;;;;2.13;1.57;;;;;;;;;;5127985;27;20585;-89
2023/03/17 05:06:41;;;;;;;1.40;1.30;;;;;;;;;;5121968;27;20267;-87
2023/03/17 05:09:08;;;;;;;5.80;1.40;;;;;;;;;;5133984;27;20214;-88
2023/03/17 05:11:35;;;;;;;2.70;1.60;;;;;;;;;;5088167;28;20227;-90
2023/03/17 05:14:03;;;;;;;1.93;1.70;;;;;;;;;;5116284;27;20195;-88
2023/03/17 05:16:30;;;;;;;1.53;1.43;;;;;;;;;;5127210;27;20195;-87
2023/03/17 05:18:57;;;;;;;4.20;1.37;;;;;;;;;;5095367;28;20212;-87
2023/03/17 05:21:25;;;;;;;1.93;1.83;;;;;;;;;;5100648;27;20214;-87
2023/03/17 05:23:52;;;;;;;2.57;1.53;;;;;;;;;;5120394;27;20294;-88
2023/03/17 05:26:18;;;;;;;2.53;1.60;;;;;;;;;;5095488;28;20662;-88
2023/03/17 05:28:47;;;;;;;1.93;1.73;;;;;;;;;;5119207;27;20214;-88
2023/03/17 05:31:17;;;;;;;1.63;1.53;;;;;;;;;;5095458;28;20223;-87
2023/03/17 05:33:45;;;;;;;2.80;1.77;;;;;;;;;;5122877;27;20206;-88
2023/03/17 05:36:12;;;;;;;1.60;1.50;;;;;;;;;;5133562;27;20245;-87
2023/03/17 05:38:39;;;;;;;1.60;1.50;;;;;;;;;;5115136;27;20230;-88
2023/03/17 05:41:05;;;;;;;3.73;1.87;;;;;;;;;;5120663;27;20288;-89
2023/03/17 05:43:32;;;;;;;1.73;1.47;;;;;;;;;;5125872;27;20207;-88
2023/03/17 05:45:59;;;;;;;1.60;1.50;;;;;;;;;;5127278;27;20655;-87
2023/03/17 05:48:30;;;;;;;2.30;1.87;;;;;;;;;;5121737;27;20203;-87
2023/03/17 05:50:57;;;;;;;1.93;1.77;;;;;;;;;;5119476;27;20245;-87
2023/03/17 05:53:35;;;;;;;2.53;2.20;;;;;;;;;;5124476;27;20264;-88
2023/03/17 05:56:02;;;;;;;64.47;34.23;;;;;;;;;;5131048;27;20273;-88
2023/03/17 05:58:30;;;;;;;6.83;4.87;;;;;;;;;;5122028;27;20660;-87
2023/03/17 06:00:57;;;;;;;2.63;2.43;;;;;;;;;;5113020;28;20284;-88
2023/03/17 06:03:24;;;;;;;2.67;1.90;;;;;;;;;;5112745;28;20646;-88
2023/03/17 06:05:52;;;;;;;107.73;47.87;;;;;;;;;;5126396;27;20882;-87
2023/03/17 06:08:19;;;;;;;21.90;11.57;;;;;;;;;;5113173;28;20222;-87
2023/03/17 06:10:47;;;;;;;12.97;8.43;;;;;;;;;;5129410;27;20605;-87
2023/03/17 06:13:14;;;;;;;12.10;6.30;;;;;;;;;;5122349;27;20773;-88
2023/03/17 06:15:41;;;;;;;18.77;10.90;;;;;;;;;;5132950;27;20230;-87
2023/03/17 06:18:08;;;;;;;10.43;8.43;;;;;;;;;;5123099;27;20215;-88
2023/03/17 06:20:35;;;;;;;2.87;2.47;;;;;;;;;;5115792;27;20194;-92
2023/03/17 06:23:03;;;;;;;3.33;2.00;;;;;;;;;;5123372;27;20253;-87
2023/03/17 06:25:30;;;;;;;2.40;2.20;;;;;;;;;;5129778;27;20728;-87
2023/03/17 06:27:57;;;;;;;1.50;1.40;;;;;;;;;;5122508;27;20260;-87
2023/03/17 06:30:24;;;;;;;2.40;1.70;;;;;;;;;;5130255;27;20254;-87
2023/03/17 06:32:51;;;;;;;1.90;1.80;;;;;;;;;;5132980;27;20229;-87
2023/03/17 06:35:18;;;;;;;2.30;1.93;;;;;;;;;;5128194;27;20633;-87
2023/03/17 06:37:44;;;;;;;3.80;1.57;;;;;;;;;;5112755;28;20210;-87
2023/03/17 06:40:14;;;;;;;1.50;1.40;;;;;;;;;;5130462;27;20207;-88
2023/03/17 06:42:42;;;;;;;2.17;1.53;;;;;;;;;;5132852;27;20210;-88
2023/03/17 06:45:10;;;;;;;2.33;1.43;;;;;;;;;;5128282;27;20214;-88
2023/03/17 06:47:37;;;;;;;3.47;1.63;;;;;;;;;;5124453;27;20681;-88
2023/03/17 06:50:08;;;;;;;4.07;1.93;;;;;;;;;;5113743;28;20264;-89
2023/03/17 06:52:35;;;;;;;7.83;6.73;;;;;;;;;;5112364;28;20226;-88
2023/03/17 06:55:03;;;;;;;14.33;12.90;;;;;;;;;;5112336;28;20211;-87
2023/03/17 06:57:31;;;;;;;2.47;1.43;;;;;;;;;;5112321;28;20207;-88
2023/03/17 06:59:58;;;;;;;6.93;3.70;;;;;;;;;;5132971;27;20260;-87
2023/03/17 07:02:25;;;;;;;1.93;1.80;;;;;;;;;;5132116;27;20230;-88
2023/03/17 07:04:52;;;;;;;1.90;1.80;;;;;;;;;;5120425;28;20218;-88
2023/03/17 07:07:19;;;;;;;1.50;1.40;;;;;;;;;;5118009;28;20195;-89
2023/03/17 07:09:46;;;;;;;2.07;1.83;;;;;;;;;;5112177;28;20203;-88
2023/03/17 07:12:13;;;;;;;1.47;1.30;;;;;;;;;;5112240;28;20246;-88
2023/03/17 07:14:42;;;;;;;1.53;1.43;;;;;;;;;;5120378;28;20263;-88
2023/03/17 07:17:12;;;;;;;2.97;1.57;;;;;;;;;;5118893;28;20203;-88
2023/03/17 07:19:39;;;;;;;3.77;1.80;;;;;;;;;;5132054;28;20202;-88
2023/03/17 07:22:06;;;;;;;1.83;1.20;;;;;;;;;;5130993;28;20214;-88
2023/03/17 07:24:34;;;;;;;2.90;1.73;;;;;;;;;;5121433;28;20207;-88
2023/03/17 07:27:00;;;;;;;1.30;1.20;;;;;;;;;;5129724;28;20202;-88
2023/03/17 07:29:28;;;;;;;1.83;1.43;;;;;;;;;;5112195;28;20256;-88
2023/03/17 07:31:56;;;;;;;1.10;1.10;;;;;;;;;;5125727;28;20235;-88
2023/03/17 07:34:23;;;;;;;2.47;1.33;;;;;;;;;;5112017;28;20214;-88
2023/03/17 07:36:50;;;;;;;1.40;1.30;;;;;;;;;;5115452;28;20214;-88
2023/03/17 07:39:17;;;;;;;1.63;1.43;;;;;;;;;;5132431;28;20216;-88
2023/03/17 07:41:45;;;;;;;2.00;1.67;;;;;;;;;;5118127;28;20205;-87
2023/03/17 07:44:12;;;;;;;2.80;2.23;;;;;;;;;;5122230;28;20203;-88
2023/03/17 07:46:39;;;;;;;13.57;8.13;;;;;;;;;;5126705;27;20647;-88
2023/03/17 07:49:08;;;;;;;4.43;2.67;;;;;;;;;;5115784;28;20742;-88
2023/03/17 07:51:35;;;;;;;44.57;22.07;;;;;;;;;;5129486;27;20223;-88
2023/03/17 07:54:04;;;;;;;4.10;2.70;;;;;;;;;;5127303;27;20572;-88
2023/03/17 07:56:32;;;;;;;2.37;2.17;;;;;;;;;;5117242;27;20234;-88
2023/03/17 07:58:59;;;;;;;3.90;2.80;;;;;;;;;;5127743;27;20675;-88
2023/03/17 08:01:26;;;;;;;53.70;19.93;;;;;;;;;;5122340;27;20206;-88
2023/03/17 08:03:53;;;;;;;27.40;11.20;;;;;;;;;;5135829;27;20213;-88
2023/03/17 08:06:24;;;;;;;38.83;20.73;;;;;;;;;;5136128;27;20684;-87
2023/03/17 08:08:51;;;;;;;32.43;18.73;;;;;;;;;;5123110;27;20203;-87
2023/03/17 08:11:18;;;;;;;6.80;3.87;;;;;;;;;;5127883;27;20231;-88
2023/03/17 08:13:47;;;;;;;6.60;4.70;;;;;;;;;;5115446;28;20204;-88
2023/03/17 08:16:14;;;;;;;11.77;7.83;;;;;;;;;;5115026;28;20210;-88
2023/03/17 08:18:41;;;;;;;2.73;2.03;;;;;;;;;;5129356;27;20762;-88
2023/03/17 08:21:08;;;;;;;3.27;2.97;;;;;;;;;;5135645;27;20210;-85
2023/03/17 08:23:36;;;;;;;9.07;2.47;;;;;;;;;;5121152;27;20211;-85
2023/03/17 08:26:06;;;;;;;2.50;2.30;;;;;;;;;;5123003;27;20211;-86
2023/03/17 08:28:33;;;;;;;1.90;1.80;;;;;;;;;;5135517;27;20556;-88
2023/03/17 08:31:11;;;;;;;2.20;2.00;;;;;;;;;;5135332;27;20211;-88
2023/03/17 08:33:38;;;;;;;2.50;2.30;;;;;;;;;;5120996;27;20346;-88
2023/03/17 08:36:08;;;;;;;2.20;1.93;;;;;;;;;;5135307;27;20208;-88
2023/03/17 08:38:37;;;;;;;3.83;2.07;;;;;;;;;;5135005;27;20207;-87
2023/03/17 08:41:05;;;;;;;3.17;1.93;;;;;;;;;;5123398;27;20230;-85
2023/03/17 08:43:32;;;;;;;2.33;2.10;;;;;;;;;;5114908;28;20670;-86
2023/03/17 08:46:03;;;;;;;2.00;1.90;;;;;;;;;;5114239;28;20215;-87
2023/03/17 08:48:30;;;;;;;5.67;4.40;;;;;;;;;;5114744;28;20589;-86
2023/03/17 08:50:58;;;;;;;3.63;2.30;;;;;;;;;;5127815;27;20225;-86
2023/03/17 08:53:25;;;;;;;2.97;2.67;;;;;;;;;;5134668;27;20317;-86
2023/03/17 08:55:55;;;;;;;2.80;2.40;;;;;;;;;;5121099;27;20222;-86
2023/03/17 08:58:22;;;;;;;4.77;2.67;;;;;;;;;;5108420;27;20294;-86
2023/03/17 09:00:49;;;;;;;4.50;2.60;;;;;;;;;;5120228;27;20682;-86
2023/03/17 09:03:16;;;;;;;2.77;2.57;;;;;;;;;;5114217;28;20638;-87
2023/03/17 09:05:43;;;;;;;3.33;2.43;;;;;;;;;;5115374;27;20211;-87
2023/03/17 09:08:11;;;;;;;7.73;5.37;;;;;;;;;;5135010;27;20293;-87
2023/03/17 09:10:39;;;;;;;3.30;2.50;;;;;;;;;;5134133;27;20230;-87
2023/03/17 09:13:07;;;;;;;26.07;14.50;;;;;;;;;;5125685;27;20227;-86
2023/03/17 09:15:35;;;;;;;16.83;8.57;;;;;;;;;;5127777;27;20237;-86
2023/03/17 09:18:02;;;;;;;3.67;2.63;;;;;;;;;;5123063;27;20234;-87
2023/03/17 09:20:30;;;;;;;2.80;2.47;;;;;;;;;;5117561;27;20252;-85
2023/03/17 09:22:56;;;;;;;4.00;2.63;;;;;;;;;;5123525;27;20212;-86
2023/03/17 09:25:23;;;;;;;3.47;3.03;;;;;;;;;;5119818;27;20214;-87
2023/03/17 09:27:50;;;;;;;27.63;16.87;;;;;;;;;;5124313;27;20260;-87
2023/03/17 09:30:19;;;;;;;13.23;8.77;;;;;;;;;;5113642;28;20226;-86
2023/03/17 09:32:46;;;;;;;3.53;3.17;;;;;;;;;;5113465;28;20219;-86
2023/03/17 09:35:13;;;;;;;4.40;2.53;;;;;;;;;;5113163;28;20260;-86
2023/03/17 09:37:40;;;;;;;2.63;2.10;;;;;;;;;;5113698;28;20693;-87
2023/03/17 09:40:09;;;;;;;4.00;3.53;;;;;;;;;;5130794;27;20233;-88
2023/03/17 09:42:47;;;;;;;4.57;2.87;;;;;;;;;;5123166;27;20239;-86
2023/03/17 09:45:26;;;;;;;3.20;2.87;;;;;;;;;;5118709;27;20285;-86
2023/03/17 09:48:21;;;;;;;2.70;2.50;;;;;;;;;;5119566;27;20210;-86
2023/03/17 09:50:52;;;;;;;3.23;2.93;;;;;;;;;;5133661;27;20201;-86
2023/03/17 09:53:23;;;;;;;3.73;2.83;;;;;;;;;;5127699;27;20227;-86
2023/03/17 09:55:53;;;;;;;5.00;3.83;;;;;;;;;;5113001;28;20238;-86
2023/03/17 09:58:24;;;;;;;3.83;3.20;;;;;;;;;;5099315;28;20290;-86
2023/03/17 10:00:53;;;;;;;3.87;3.17;;;;;;;;;;5126643;27;20203;-86
2023/03/17 10:03:26;;;;;;;3.70;2.87;;;;;;;;;;5120876;27;20195;-86
2023/03/17 10:05:53;;;;;;;2.83;2.60;;;;;;;;;;5119537;27;20638;-86
2023/03/17 10:08:22;;;;;;;5.10;3.17;;;;;;;;;;5124108;27;20252;-86
2023/03/17 10:10:52;;;;;;;3.90;2.63;;;;;;;;;;5128687;27;20239;-86
2023/03/17 10:13:38;;;;;;;7.07;3.40;;;;;;;;;;5122599;27;20252;-85
2023/03/17 10:16:09;;;;;;;6.93;4.20;;;;;;;;;;5112526;28;20727;-86
2023/03/17 10:18:42;;;;;;;4.37;3.50;;;;;;;;;;5112971;28;21582;-88
2023/03/17 10:21:12;;;;;;;16.47;11.17;;;;;;;;;;5099919;28;20215;-86
2023/03/17 10:23:40;;;;;;;3.10;2.80;;;;;;;;;;5126030;27;20210;-87
2023/03/17 10:26:12;;;;;;;4.63;4.17;;;;;;;;;;5121546;27;20252;-88
2023/03/17 10:28:39;;;;;;;4.30;3.57;;;;;;;;;;5119548;27;20276;-87
2023/03/17 10:31:16;;;;;;;4.80;3.97;;;;;;;;;;5133017;27;20202;-87
2023/03/17 10:33:43;;;;;;;4.00;3.23;;;;;;;;;;5115204;27;20223;-87
2023/03/17 10:36:11;;;;;;;4.30;3.50;;;;;;;;;;5112513;28;20208;-88
2023/03/17 10:38:38;;;;;;;18.83;16.10;;;;;;;;;;5112578;28;20226;-88
2023/03/17 10:41:10;;;;;;;5.03;3.00;;;;;;;;;;5124462;27;20582;-87
2023/03/17 10:43:43;;;;;;;4.33;2.57;;;;;;;;;;5126702;27;20631;-88
2023/03/17 10:46:18;;;;;;;2.20;2.00;;;;;;;;;;5126075;27;20199;-87
2023/03/17 10:48:51;;;;;;;2.60;2.37;;;;;;;;;;5100125;28;20244;-86
2023/03/17 10:51:28;;;;;;;2.97;2.20;;;;;;;;;;5112412;28;20200;-87
2023/03/17 10:53:55;;;;;;;2.27;1.90;;;;;;;;;;5112043;28;20309;-87
2023/03/17 10:56:24;;;;;;;3.17;2.23;;;;;;;;;;5112058;28;20206;-86
2023/03/17 10:58:53;;;;;;;2.50;2.23;;;;;;;;;;5112458;28;20206;-87
2023/03/17 11:01:24;;;;;;;2.57;2.37;;;;;;;;;;5116512;28;20593;-87
2023/03/17 11:03:51;;;;;;;5.60;2.60;;;;;;;;;;5119916;27;20690;-87
2023/03/17 11:06:19;;;;;;;3.23;2.00;;;;;;;;;;5117350;28;20665;-87
2023/03/17 11:08:48;;;;;;;2.50;2.30;;;;;;;;;;5132499;28;20701;-87
2023/03/17 11:11:24;;;;;;;2.27;2.07;;;;;;;;;;5125376;28;20235;-86
2023/03/17 11:13:52;;;;;;;2.83;2.47;;;;;;;;;;5111563;28;20313;-87
2023/03/17 11:16:25;;;;;;;2.37;2.17;;;;;;;;;;5120751;28;20207;-87
2023/03/17 11:18:54;;;;;;;3.33;2.80;;;;;;;;;;5115966;28;20214;-86
2023/03/17 11:21:25;;;;;;;3.47;3.00;;;;;;;;;;5123317;27;20214;-86
2023/03/17 11:23:52;;;;;;;22.33;20.17;;;;;;;;;;5122684;27;20259;-86
2023/03/17 11:26:45;;;;;;;3.93;3.30;;;;;;;;;;5125529;27;21075;-87
2023/03/17 11:29:24;;;;;;;3.23;2.97;;;;;;;;;;5112980;28;20268;-88
2023/03/17 11:31:58;;;;;;;2.50;2.30;;;;;;;;;;5129088;27;20209;-85
2023/03/17 11:34:57;;;;;;;2.47;2.10;;;;;;;;;;5115519;28;20292;-86
2023/03/17 11:37:33;;;;;;;3.10;2.10;;;;;;;;;;5124223;27;20228;-85
2023/03/17 11:40:06;;;;;;;2.77;2.10;;;;;;;;;;5135950;27;20202;-85
2023/03/17 11:42:38;;;;;;;2.33;2.13;;;;;;;;;;5124943;27;20293;-85
2023/03/17 11:45:14;;;;;;;2.43;2.23;;;;;;;;;;5115793;28;20207;-87
2023/03/17 11:48:06;;;;;;;2.13;1.93;;;;;;;;;;5128253;27;20732;-85
2023/03/17 11:50:38;;;;;;;2.57;2.37;;;;;;;;;;5115318;27;20213;-85
2023/03/17 11:53:19;;;;;;;2.60;2.40;;;;;;;;;;5122322;27;20218;-84
2023/03/17 11:55:48;;;;;;;3.03;2.10;;;;;;;;;;5122155;27;20238;-85
2023/03/17 11:58:25;;;;;;;2.07;1.97;;;;;;;;;;5122305;27;20209;-85
2023/03/17 12:00:55;;;;;;;2.03;1.83;;;;;;;;;;5120333;27;20199;-86
2023/03/17 12:03:30;;;;;;;2.20;2.00;;;;;;;;;;5124271;27;20218;-86
2023/03/17 12:06:00;;;;;;;2.33;2.07;;;;;;;;;;5121718;27;20559;-85
2023/03/17 12:08:34;;;;;;;2.00;1.90;;;;;;;;;;5124722;27;20218;-85
2023/03/17 12:11:02;;;;;;;2.03;1.90;;;;;;;;;;5133149;27;20222;-85
2023/03/17 12:13:33;;;;;;;2.10;1.90;;;;;;;;;;5123849;27;20649;-85
2023/03/17 12:16:04;;;;;;;2.97;2.50;;;;;;;;;;5128424;27;20211;-85
2023/03/17 12:18:34;;;;;;;3.83;2.50;;;;;;;;;;5114720;28;20213;-85
2023/03/17 12:21:06;;;;;;;3.60;3.10;;;;;;;;;;5107770;27;20688;-85
2023/03/17 12:23:37;;;;;;;6.43;3.17;;;;;;;;;;5134758;27;20235;-85
2023/03/17 12:26:06;;;;;;;3.67;2.23;;;;;;;;;;5127176;27;20303;-85
2023/03/17 12:28:37;;;;;;;3.43;2.23;;;;;;;;;;5117002;27;20226;-85
2023/03/17 12:31:06;;;;;;;3.20;1.63;;;;;;;;;;5125680;27;20310;-85
2023/03/17 12:33:39;;;;;;;4.13;2.60;;;;;;;;;;5113905;28;20238;-85
2023/03/17 12:36:09;;;;;;;2.10;1.90;;;;;;;;;;5114449;28;20199;-85
2023/03/17 12:38:38;;;;;;;2.50;2.07;;;;;;;;;;5119232;27;20298;-84
2023/03/17 12:41:41;;;;;;;5.03;2.20;;;;;;;;;;5123137;27;20207;-84
2023/03/17 12:44:17;;;;;;;2.10;2.00;;;;;;;;;;5081683;28;20295;-84
2023/03/17 12:47:12;;;;;;;2.10;1.90;;;;;;;;;;5115092;27;20202;-85
2023/03/17 12:49:53;;;;;;;2.40;2.20;;;;;;;;;;5121277;27;20211;-85
2023/03/17 12:52:27;;;;;;;3.70;2.40;;;;;;;;;;5122887;27;20203;-84
2023/03/17 12:54:54;;;;;;;2.33;2.13;;;;;;;;;;5132539;27;20230;-85
2023/03/17 12:57:23;;;;;;;3.47;2.93;;;;;;;;;;5134332;27;20206;-85
2023/03/17 12:59:58;;;;;;;2.37;2.17;;;;;;;;;;5120791;27;20206;-85
2023/03/17 13:02:34;;;;;;;3.87;2.30;;;;;;;;;;5119964;27;20195;-86
2023/03/17 13:05:06;;;;;;;2.60;2.30;;;;;;;;;;5113486;28;20723;-84
2023/03/17 13:07:36;;;;;;;3.73;3.17;;;;;;;;;;5113557;28;20218;-85
2023/03/17 13:10:28;;;;;;;3.17;2.87;;;;;;;;;;5111904;28;20195;-84
2023/03/17 13:12:58;;;;;;;2.93;2.67;;;;;;;;;;5083356;28;20207;-85
2023/03/17 13:15:49;;;;;;;3.90;2.40;;;;;;;;;;5112171;28;20207;-85
2023/03/17 13:18:48;;;;;;;3.20;2.80;;;;;;;;;;5114193;28;20199;-85
2023/03/17 13:21:25;;;;;;;3.47;2.70;;;;;;;;;;5091247;28;20218;-85
2023/03/17 13:23:57;;;;;;;3.07;2.77;;;;;;;;;;5110619;28;20200;-84
2023/03/17 13:26:52;;;;;;;2.70;2.40;;;;;;;;;;5093612;28;20261;-84
2023/03/17 13:29:28;;;;;;;4.67;2.93;;;;;;;;;;5090334;28;20208;-85
2023/03/17 13:32:37;;;;;;;3.37;2.40;;;;;;;;;;5100345;28;20229;-85
2023/03/17 13:35:18;;;;;;;3.50;3.07;;;;;;;;;;5075211;28;20774;-85
2023/03/17 13:38:12;;;;;;;4.57;2.93;;;;;;;;;;5104929;28;20286;-85
2023/03/17 13:40:47;;;;;;;3.20;2.80;;;;;;;;;;5093612;28;20269;-85
2023/03/17 13:43:31;;;;;;;5.27;3.60;;;;;;;;;;5109465;28;20199;-86
2023/03/17 13:46:19;;;;;;;3.20;2.90;;;;;;;;;;5099763;28;20594;-85
2023/03/17 13:48:48;;;;;;;3.47;3.00;;;;;;;;;;5092527;28;20311;-85
2023/03/17 13:51:19;;;;;;;5.20;2.53;;;;;;;;;;5107919;28;20685;-84
2023/03/17 13:53:52;;;;;;;3.70;2.40;;;;;;;;;;5103825;28;20224;-84
2023/03/17 13:56:24;;;;;;;3.90;2.70;;;;;;;;;;5096308;28;20294;-84
2023/03/17 13:59:07;;;;;;;3.17;2.63;;;;;;;;;;5101301;28;20200;-85
2023/03/17 14:01:40;;;;;;;3.07;2.83;;;;;;;;;;5079419;28;20212;-85
2023/03/17 14:04:15;;;;;;;2.57;2.30;;;;;;;;;;5091851;28;20204;-85
2023/03/17 14:06:42;;;;;;;3.50;3.20;;;;;;;;;;5102375;28;20261;-84
2023/03/17 14:09:24;;;;;;;3.73;2.70;;;;;;;;;;5095696;28;20690;-86
2023/03/17 14:11:53;;;;;;;2.60;2.40;;;;;;;;;;5091596;28;20234;-85
2023/03/17 14:14:24;;;;;;;2.27;2.07;;;;;;;;;;5105358;28;20270;-86
2023/03/17 14:16:55;;;;;;;3.10;2.47;;;;;;;;;;5104392;28;20210;-84
2023/03/17 14:19:26;;;;;;;2.77;2.40;;;;;;;;;;5105755;28;20200;-85
2023/03/17 14:21:53;;;;;;;4.77;2.50;;;;;;;;;;5105544;28;20204;-85
2023/03/17 14:24:24;;;;;;;3.80;2.63;;;;;;;;;;5099908;28;20299;-86
2023/03/17 14:26:51;;;;;;;3.27;2.90;;;;;;;;;;5097059;28;20204;-85
2023/03/17 14:29:20;;;;;;;6.07;4.07;;;;;;;;;;5091844;28;20211;-85
2023/03/17 14:31:48;;;;;;;5.50;3.80;;;;;;;;;;5091785;28;20212;-86
2023/03/17 14:34:16;;;;;;;4.93;3.83;;;;;;;;;;5091939;28;20618;-86
2023/03/17 14:36:43;;;;;;;2.23;2.03;;;;;;;;;;5107625;28;20206;-85
2023/03/17 14:39:22;;;;;;;2.07;1.80;;;;;;;;;;5112226;28;20203;-85
2023/03/17 14:41:58;;;;;;;4.53;2.40;;;;;;;;;;5112083;28;20207;-85
2023/03/17 14:44:24;;;;;;;4.90;2.73;;;;;;;;;;5099418;28;20287;-85
2023/03/17 14:46:51;;;;;;;5.53;2.70;;;;;;;;;;5110742;28;20252;-85
2023/03/17 14:49:19;;;;;;;3.53;2.77;;;;;;;;;;5111152;28;20207;-86
2023/03/17 14:51:49;;;;;;;3.67;2.40;;;;;;;;;;5111437;28;20203;-85
2023/03/17 14:54:18;;;;;;;3.90;3.30;;;;;;;;;;5098560;28;20234;-87
2023/03/17 14:56:49;;;;;;;3.20;2.33;;;;;;;;;;5104295;28;20208;-86
2023/03/17 14:59:19;;;;;;;4.13;2.33;;;;;;;;;;5091674;28;20219;-86
2023/03/17 15:01:47;;;;;;;5.17;4.17;;;;;;;;;;5092079;28;20215;-86
2023/03/17 15:04:17;;;;;;;3.70;2.27;;;;;;;;;;5107419;28;20203;-87
2023/03/17 15:06:49;;;;;;;2.40;2.20;;;;;;;;;;5111788;28;20219;-88
2023/03/17 15:09:21;;;;;;;2.93;2.27;;;;;;;;;;5110298;28;20741;-86
2023/03/17 15:11:49;;;;;;;4.77;2.30;;;;;;;;;;5075337;28;20658;-85
2023/03/17 15:14:22;;;;;;;2.97;2.43;;;;;;;;;;5095648;28;20234;-85
2023/03/17 15:16:51;;;;;;;3.10;2.80;;;;;;;;;;5089085;28;20257;-79
2023/03/17 15:19:21;;;;;;;6.30;2.87;;;;;;;;;;5104178;28;20250;-79
2023/03/17 15:21:48;;;;;;;2.60;2.23;;;;;;;;;;5094967;28;20265;-84
2023/03/17 15:24:30;;;;;;;2.17;1.97;;;;;;;;;;5090865;28;20258;-84
2023/03/17 15:27:04;;;;;;;2.53;2.03;;;;;;;;;;5107740;28;20211;-83
2023/03/17 15:29:31;;;;;;;5.10;3.17;;;;;;;;;;5111137;28;20202;-83
2023/03/17 15:32:03;;;;;;;2.50;2.30;;;;;;;;;;5106626;28;20215;-83
2023/03/17 15:34:30;;;;;;;3.80;2.30;;;;;;;;;;5091083;28;20259;-83
2023/03/17 15:36:57;;;;;;;3.60;2.43;;;;;;;;;;5096072;28;20207;-83
2023/03/17 15:39:24;;;;;;;4.60;2.80;;;;;;;;;;5080384;28;20269;-83
2023/03/17 15:41:51;;;;;;;2.20;2.10;;;;;;;;;;5096858;28;20562;-87
2023/03/17 15:44:19;;;;;;;1.77;1.67;;;;;;;;;;5083943;28;20191;-83
2023/03/17 15:46:47;;;;;;;3.03;2.27;;;;;;;;;;5090476;28;20296;-82
2023/03/17 15:49:17;;;;;;;3.10;2.30;;;;;;;;;;5093962;28;20211;-83
2023/03/17 15:51:44;;;;;;;4.60;2.53;;;;;;;;;;5093891;28;20203;-83
2023/03/17 15:54:14;;;;;;;3.10;2.30;;;;;;;;;;5089279;28;20235;-83
2023/03/17 15:56:42;;;;;;;6.70;2.47;;;;;;;;;;5102560;28;20294;-82
2023/03/17 15:59:09;;;;;;;3.43;2.13;;;;;;;;;;5111187;28;20208;-82